Alba, Missouri
Current Conditions -  °F | °C
As of 6:28 AM on Sunday 21 Dec 2014 (Local Time) from KJLN Reporting Station
Haze Haze  
Wind Chill: 37°   Ceiling: 900
Heat Index: 42°   Visibility: 6mi
Dew Point: 40°   Wind: 8mph
Humidity: 92%   Direction: 160°SSE
Pressure: 30.09"   Gusts: NA
Location:  37.24°N, 94.42°W
Report Text: KJLN 211228Z 16007KT 6SM BR BKN009 OVC014 06/04 A3009 RMK AO2 T00560044 $
Loading
Personal Weather Stations






























Interactive Weather Map New forecast layout! Learn more

10-Day Weather Forecast

Advertisements
Track Severe Weather on mobile